FFS weather

FFS Field
Bald Knob, Arkansas, United States

Public forecast

Using degrees Fahrenheit for public forecast. Weather courtesy of forecast.io.

METAR (pilot weather report)

Closest report is Searcy Municipal Airport, 10.8 nm (20.1 km) WSW. Retrieved 2019/07/15 19:35 UTC (18 minutes ago):

KSRC 151935Z AUTO 20007KT 6SM -RA BR FEW006 SCT010 OVC031 24/24 A2986 RMK AO2 RAB19 P0001

TAF (pilot weather forecast)

Closest forecast is Little Rock Air Force Base, 37.4 nm (69.2 km) SW. Retrieved 2019/07/15 15:06 UTC (5 hours ago):

TAF TAF KLRF 151500Z 1515/1621 16006KT 6000 -RA BR BKN003 OVC015 QNH2984INS BECMG 1516/1517 18010G15KT 9000 -SHRA BKN010 OVC018 QNH2984INS BECMG 1521/1522 22012KT 9999 VCSH BKN015 BKN020 OVC050 QNH2983INS BECMG 1600/1601 19006KT 9999 NSW BKN020 QNH2986INS BECMG 1605/1606 19009KT 8000 -SHRA BKN007 WS020/21045KT QNH2990INS BECMG 1618/1619 21009KT 8000 SHRA BKN020 QNH2994INS TEMPO 1619/1620 VRB20G25KT 8000 -TSRA BKN008CB OVC015 BECMG 1620/1621 22012KT 9999 NSW SCT023 QNH2989INS TX27/1521Z TN22/1611Z